Time;durP1;ratioP1;P1;durP2;ratioP2;P2;SDS_P1;SDS_P2;PMS_P1;PMS_P2;Temp;Humidity;BMP_temperature;BMP_pressure;BME280_temperature;BME280_humidity;BME280_pressure;Samples;Min_cycle;Max_cycle;Signal;HPM_P1;HPM_P2
2022/11/06 00:00:19;;;;;;;0.10;0.10;;;;;;;-0.33;69.28;100966.13;6219754;23;20024;-64
2022/11/06 00:02:45;;;;;;;0.10;0.10;;;;;;;-0.35;69.39;100977.06;6233665;23;20020;-64
2022/11/06 00:07:57;;;;;;;0.10;0.10;;;;;;;-0.49;70.10;100973.22;6248828;23;20102;-64
2022/11/06 00:10:23;;;;;;;0.10;0.10;;;;;;;-0.44;70.11;100976.25;6215941;23;20085;-64
2022/11/06 00:12:49;;;;;;;0.10;0.10;;;;;;;-0.43;70.11;100972.56;6235206;23;20070;-64
2022/11/06 00:15:15;;;;;;;0.10;0.10;;;;;;;-0.45;70.29;100979.94;6244894;23;20360;-64
2022/11/06 00:17:49;;;;;;;0.10;0.10;;;;;;;-0.55;70.00;100963.19;6203522;23;20238;-64
2022/11/06 00:20:15;;;;;;;0.10;0.10;;;;;;;-0.45;69.90;100976.41;6192553;23;20020;-64
2022/11/06 00:22:41;;;;;;;0.13;0.10;;;;;;;-0.43;69.87;100972.56;6206754;23;20050;-64
2022/11/06 00:25:08;;;;;;;0.00;0.00;;;;;;;-0.34;69.54;100965.28;6231772;23;20016;-64
2022/11/06 00:27:36;;;;;;;0.10;0.10;;;;;;;-0.29;69.36;100967.47;6243750;23;20027;-65
2022/11/06 00:30:02;;;;;;;0.10;0.10;;;;;;;-0.33;69.31;100961.59;6243438;23;20673;-64
2022/11/06 00:32:29;;;;;;;;;;;;;;;-0.37;69.54;100960.28;6237472;23;20024;-65
2022/11/06 00:34:57;;;;;;;0.10;0.10;;;;;;;-0.36;69.29;100961.09;6208805;23;20293;-65
2022/11/06 00:37:23;;;;;;;0.10;0.10;;;;;;;-0.37;69.38;100960.28;6186097;23;20028;-65
2022/11/06 00:39:49;;;;;;;0.10;0.10;;;;;;;-0.34;69.12;100962.59;6205997;23;20390;-64
2022/11/06 00:42:15;;;;;;;0.10;0.10;;;;;;;-0.44;69.19;100970.88;6236839;23;20055;-68
2022/11/06 00:44:40;;;;;;;0.10;0.10;;;;;;;-0.52;69.50;100973.56;6238326;23;20044;-68
2022/11/06 00:47:06;;;;;;;0.10;0.10;;;;;;;-0.46;69.52;100969.38;6233426;23;20024;-68
2022/11/06 00:49:32;;;;;;;0.10;0.10;;;;;;;-0.46;69.50;100969.38;6237759;23;20027;-68
2022/11/06 00:52:00;;;;;;;0.00;0.00;;;;;;;-0.53;69.52;100966.53;6219559;23;20525;-68
2022/11/06 00:54:26;;;;;;;0.10;0.10;;;;;;;-0.53;69.77;100968.38;6238259;23;20040;-69
2022/11/06 00:56:52;;;;;;;0.10;0.10;;;;;;;-0.51;69.82;100969.88;6218574;23;20448;-68
2022/11/06 00:59:18;;;;;;;0.10;0.10;;;;;;;-0.47;69.65;100973.91;6244486;23;20055;-68
2022/11/06 01:01:44;;;;;;;0.13;0.10;;;;;;;-0.62;69.49;100967.59;6233747;23;20452;-68
2022/11/06 01:04:13;;;;;;;0.10;0.10;;;;;;;-0.70;69.99;100972.97;6245012;23;20020;-64
2022/11/06 01:06:41;;;;;;;0.32;0.10;;;;;;;-0.69;70.14;100971.94;6244727;23;20537;-65
2022/11/06 01:09:11;;;;;;;0.10;0.10;;;;;;;-0.67;70.09;100973.47;6207911;23;20065;-64
2022/11/06 01:11:42;;;;;;;0.10;0.10;;;;;;;-0.61;69.90;100971.94;6238374;23;20024;-65
2022/11/06 01:14:10;;;;;;;0.10;0.10;;;;;;;-0.62;70.04;100967.59;6233315;23;20055;-65
2022/11/06 01:16:37;;;;;;;0.10;0.10;;;;;;;-0.61;69.94;100975.44;6208852;23;20020;-65
2022/11/06 01:19:03;;;;;;;0.10;0.10;;;;;;;-0.68;70.07;100979.84;6231574;23;20024;-64
2022/11/06 01:21:32;;;;;;;0.10;0.10;;;;;;;-0.77;70.31;100983.53;6244797;23;20066;-64
2022/11/06 01:24:02;;;;;;;0.10;0.10;;;;;;;-0.76;70.35;100982.53;6205711;23;20122;-64
2022/11/06 01:26:29;;;;;;;0.10;0.10;;;;;;;-0.79;70.39;100990.94;6208839;23;20059;-68
2022/11/06 01:28:56;;;;;;;0.10;0.10;;;;;;;-0.87;70.66;100995.31;6247505;23;20020;-68
2022/11/06 01:31:24;;;;;;;0.10;0.10;;;;;;;-0.93;70.81;100987.13;6209787;23;20359;-69
2022/11/06 01:33:49;;;;;;;;;;;;;;;-0.83;70.90;100990.44;6238532;23;20039;-68
2022/11/06 01:36:17;;;;;;;0.75;0.10;;;;;;;-0.78;70.52;100984.56;6236993;23;20389;-68
2022/11/06 01:38:44;;;;;;;;;;;;;;;-0.80;70.60;100987.41;6235724;23;20020;-68
2022/11/06 01:41:12;;;;;;;0.10;0.10;;;;;;;-0.85;70.78;100976.34;6243987;23;19919;-69
2022/11/06 01:43:47;;;;;;;0.10;0.10;;;;;;;-0.81;70.75;100987.59;6231017;23;20261;-69
2022/11/06 01:46:14;;;;;;;0.10;0.10;;;;;;;-0.85;70.88;100979.03;6233946;23;20028;-69
2022/11/06 01:48:43;;;;;;;0.10;0.10;;;;;;;-0.84;70.79;100972.66;6206454;23;20024;-68
2022/11/06 01:51:10;;;;;;;0.10;0.10;;;;;;;-0.81;70.88;100977.66;6243608;23;20016;-68
2022/11/06 01:53:37;;;;;;;0.10;0.10;;;;;;;-0.77;70.71;100984.41;6207927;23;20024;-68
2022/11/06 01:56:06;;;;;;;0.10;0.10;;;;;;;-0.91;71.00;100977.03;6246963;23;20031;-64
2022/11/06 01:58:35;;;;;;;0.10;0.10;;;;;;;-1.03;71.70;100968.47;6208989;23;20016;-68
2022/11/06 02:01:04;;;;;;;0.05;0.05;;;;;;;-1.02;71.88;100964.78;6216442;23;20479;-67
2022/11/06 02:03:30;;;;;;;0.10;0.10;;;;;;;-0.97;71.94;100966.97;6233876;23;20370;-68
2022/11/06 02:05:57;;;;;;;0.10;0.10;;;;;;;-1.01;71.74;100958.44;6237020;23;20024;-68
2022/11/06 02:08:24;;;;;;;0.10;0.10;;;;;;;-0.93;71.76;100961.09;6244657;23;20020;-68
2022/11/06 02:10:51;;;;;;;0.10;0.10;;;;;;;-0.88;71.65;100965.94;6245297;23;20027;-68
2022/11/06 02:13:27;;;;;;;0.10;0.10;;;;;;;-0.87;71.35;100962.25;6233303;23;20016;-68
2022/11/06 02:16:02;;;;;;;0.15;0.10;;;;;;;-0.92;71.46;100964.63;6201897;23;20020;-68
2022/11/06 02:18:44;;;;;;;0.10;0.10;;;;;;;-0.83;71.35;100957.38;6209491;23;20027;-68
2022/11/06 02:21:34;;;;;;;0.10;0.10;;;;;;;-0.77;70.94;100956.69;6234658;23;20032;-68
2022/11/06 02:24:29;;;;;;;0.10;0.10;;;;;;;-0.74;70.78;100954.50;6209639;23;20419;-68
2022/11/06 02:27:04;;;;;;;0.10;0.10;;;;;;;-0.75;70.85;100947.47;6233955;23;20086;-68
2022/11/06 02:29:35;;;;;;;0.10;0.10;;;;;;;-0.67;70.53;100957.34;6244705;23;20439;-68
2022/11/06 02:32:06;;;;;;;0.20;0.20;;;;;;;-0.67;70.50;100959.19;6243392;23;20467;-68
2022/11/06 02:34:36;;;;;;;0.10;0.10;;;;;;;-0.70;70.60;100962.22;6232867;23;20066;-68
2022/11/06 02:37:06;;;;;;;0.10;0.10;;;;;;;-0.75;70.54;100960.03;6244554;23;20024;-68
2022/11/06 02:39:36;;;;;;;0.10;0.10;;;;;;;-0.80;70.90;100960.53;6206215;23;20472;-68
2022/11/06 02:42:06;;;;;;;0.10;0.10;;;;;;;-0.79;70.66;100964.09;6209078;23;20099;-68
2022/11/06 02:44:35;;;;;;;0.10;0.10;;;;;;;-0.79;70.62;100959.53;6184515;23;20110;-68
2022/11/06 02:47:05;;;;;;;0.10;0.10;;;;;;;-0.81;70.23;100950.00;6245263;23;20028;-68
2022/11/06 02:49:37;;;;;;;0.10;0.10;;;;;;;-0.79;70.70;100961.41;6235000;23;20070;-69
2022/11/06 02:52:08;;;;;;;0.10;0.10;;;;;;;-0.77;70.43;100956.69;6232401;23;20066;-69
2022/11/06 02:54:39;;;;;;;0.10;0.10;;;;;;;-0.86;70.27;100956.72;6246321;23;20024;-68
2022/11/06 02:57:14;;;;;;;0.10;0.10;;;;;;;-0.98;70.59;100962.59;6212974;23;20021;-68
2022/11/06 02:59:46;;;;;;;0.10;0.10;;;;;;;-1.03;70.87;100963.94;6248945;23;20020;-69
2022/11/06 03:02:17;;;;;;;0.10;0.10;;;;;;;-1.00;70.83;100963.59;6209044;23;20062;-68
2022/11/06 03:04:50;;;;;;;0.10;0.10;;;;;;;-1.03;70.63;100961.25;6211618;23;20070;-68
2022/11/06 03:07:20;;;;;;;0.10;0.10;;;;;;;-1.03;70.71;100955.03;6236980;23;20024;-68
2022/11/06 03:09:48;;;;;;;0.10;0.10;;;;;;;-1.11;70.29;100963.94;6248035;23;20099;-68
2022/11/06 03:12:21;;;;;;;0.10;0.10;;;;;;;-1.18;70.72;100963.78;6247235;23;20020;-68
2022/11/06 03:14:54;;;;;;;0.10;0.10;;;;;;;-1.23;70.67;100958.09;6243716;23;20027;-68
2022/11/06 03:17:28;;;;;;;0.10;0.10;;;;;;;-1.19;70.86;100951.38;6236868;23;20070;-68
2022/11/06 03:19:59;;;;;;;0.10;0.10;;;;;;;-1.24;70.75;100948.38;6207871;23;20030;-68
2022/11/06 03:22:31;;;;;;;0.10;0.10;;;;;;;-1.32;70.91;100953.75;6234654;23;20436;-68
2022/11/06 03:25:04;;;;;;;0.10;0.10;;;;;;;-1.27;70.96;100953.22;6246489;23;20020;-68
2022/11/06 03:27:39;;;;;;;0.10;0.10;;;;;;;-1.21;70.68;100948.00;6236358;23;20456;-68
2022/11/06 03:30:07;;;;;;;0.10;0.10;;;;;;;-1.19;70.34;100948.69;6238707;23;20031;-68
2022/11/06 03:32:36;;;;;;;0.10;0.10;;;;;;;-1.19;70.43;100951.38;6249413;23;20020;-69
2022/11/06 03:35:08;;;;;;;0.10;0.10;;;;;;;-1.22;70.62;100943.66;6240310;23;20070;-69
2022/11/06 03:37:38;;;;;;;0.10;0.10;;;;;;;-1.21;70.33;100947.19;6210329;23;20099;-68
2022/11/06 03:40:10;;;;;;;0.10;0.10;;;;;;;-1.28;70.41;100941.66;6233256;23;20020;-68
2022/11/06 03:42:43;;;;;;;0.10;0.10;;;;;;;-1.35;70.57;100943.31;6234251;23;20044;-69
2022/11/06 03:45:14;;;;;;;0.10;0.10;;;;;;;-1.30;70.69;100944.50;6234879;23;20349;-68
2022/11/06 03:47:45;;;;;;;0.10;0.10;;;;;;;-1.23;70.36;100941.16;6219090;23;20021;-68
2022/11/06 03:50:15;;;;;;;0.10;0.10;;;;;;;-1.35;70.40;100944.19;6244793;23;20027;-68
2022/11/06 03:52:45;;;;;;;0.10;0.10;;;;;;;-1.37;70.74;100940.81;6245132;23;20533;-68
2022/11/06 03:55:16;;;;;;;0.10;0.10;;;;;;;-1.31;70.79;100942.00;6247016;23;20581;-68
2022/11/06 03:57:49;;;;;;;0.05;0.05;;;;;;;-1.20;70.49;100938.97;6235889;23;20020;-68
2022/11/06 04:00:19;;;;;;;0.10;0.10;;;;;;;-1.24;70.33;100943.00;6235500;23;20368;-64
2022/11/06 04:02:50;;;;;;;0.10;0.10;;;;;;;-1.23;70.38;100941.16;6231830;23;20366;-64
2022/11/06 04:05:20;;;;;;;0.10;0.10;;;;;;;-1.13;70.48;100936.44;6236375;23;20027;-64
2022/11/06 04:16:13;;;;;;;0.15;0.15;;;;;;;-1.17;70.21;100940.47;6209932;23;20035;-64
2022/11/06 04:18:39;;;;;;;0.10;0.10;;;;;;;-1.19;70.47;100940.63;6236966;23;20022;-64
2022/11/06 04:21:24;;;;;;;0.10;0.10;;;;;;;-1.12;70.54;100943.47;6244464;23;20047;-64
2022/11/06 04:26:56;;;;;;;0.22;0.20;;;;;;;-1.18;70.45;100936.94;6236264;23;20052;-65
2022/11/06 04:29:39;;;;;;;0.10;0.10;;;;;;;-1.20;70.32;100933.59;6244582;23;20047;-64
2022/11/06 04:32:12;;;;;;;0.13;0.10;;;;;;;-1.31;70.41;100928.59;6236355;23;20676;-65
2022/11/06 04:34:45;;;;;;;0.10;0.10;;;;;;;-1.22;70.60;100934.78;6247264;23;20024;-64
2022/11/06 04:37:19;;;;;;;0.10;0.10;;;;;;;-1.17;70.33;100938.63;6236585;23;20074;-64
2022/11/06 04:39:55;;;;;;;0.10;0.10;;;;;;;-1.17;70.04;100944.00;6236906;23;20066;-65
2022/11/06 04:42:28;;;;;;;0.10;0.10;;;;;;;-1.22;70.24;100934.78;6246837;23;20318;-65
2022/11/06 04:45:00;;;;;;;0.10;0.10;;;;;;;-1.21;70.50;100934.59;6219075;23;20020;-64
2022/11/06 04:47:27;;;;;;;0.10;0.10;;;;;;;-1.18;70.25;100938.81;6243207;23;20420;-64
2022/11/06 04:49:57;;;;;;;0.10;0.10;;;;;;;-1.23;70.46;100941.97;6235940;23;20027;-64
2022/11/06 04:52:26;;;;;;;0.10;0.10;;;;;;;-1.26;70.37;100953.06;6245598;23;20095;-64
2022/11/06 04:54:53;;;;;;;0.10;0.10;;;;;;;-1.30;70.05;100941.00;6247950;23;20077;-64
2022/11/06 04:57:21;;;;;;;0.10;0.10;;;;;;;-1.35;70.28;100949.53;6182816;23;20024;-64
2022/11/06 04:59:47;;;;;;;0.10;0.10;;;;;;;-1.38;70.54;100949.03;6207552;23;20190;-64
2022/11/06 05:02:15;;;;;;;0.10;0.10;;;;;;;-1.40;70.65;100951.91;6216308;23;20460;-64
2022/11/06 05:04:41;;;;;;;0.10;0.10;;;;;;;-1.38;70.62;100949.88;6234380;23;20040;-65
2022/11/06 05:07:08;;;;;;;0.10;0.10;;;;;;;-1.32;70.60;100951.06;6235021;23;20217;-64
2022/11/06 05:09:34;;;;;;;0.10;0.10;;;;;;;-1.27;70.34;100950.53;6247652;23;20531;-64
2022/11/06 05:12:00;;;;;;;0.10;0.10;;;;;;;-1.27;70.17;100956.75;6246328;23;20019;-66
2022/11/06 05:14:26;;;;;;;0.10;0.10;;;;;;;-1.32;70.55;100954.56;6235553;23;20024;-65
2022/11/06 05:16:52;;;;;;;0.15;0.15;;;;;;;-1.27;70.52;100955.91;6235853;23;20024;-64
2022/11/06 05:19:20;;;;;;;0.10;0.10;;;;;;;-1.23;70.31;100957.25;6208531;23;20451;-65
2022/11/06 05:24:30;;;;;;;0.13;0.10;;;;;;;-1.32;70.57;100962.63;6234413;23;20039;-64
2022/11/06 05:26:56;;;;;;;0.15;0.15;;;;;;;-1.27;70.37;100962.13;6217807;23;20476;-64
2022/11/06 05:29:22;;;;;;;0.10;0.10;;;;;;;-1.34;70.38;100966.47;6217662;23;20016;-64
2022/11/06 05:31:48;;;;;;;0.10;0.10;;;;;;;-1.37;70.57;100962.28;6235922;23;20024;-64
2022/11/06 05:34:14;;;;;;;0.20;0.20;;;;;;;-1.43;70.74;100958.44;6217770;23;20526;-64
2022/11/06 05:36:41;;;;;;;0.10;0.10;;;;;;;-1.39;70.83;100956.25;6240522;23;20024;-65
2022/11/06 05:39:07;;;;;;;0.20;0.20;;;;;;;-1.50;70.94;100949.34;6234120;23;20096;-64
2022/11/06 05:41:33;;;;;;;0.10;0.10;;;;;;;-1.55;71.73;100957.06;6216205;23;20028;-64
2022/11/06 05:43:59;;;;;;;0.10;0.10;;;;;;;-1.55;71.74;100956.25;6242363;23;20363;-64
2022/11/06 05:46:25;;;;;;;0.82;0.20;;;;;;;-1.52;71.97;100954.06;6246582;23;20024;-64
2022/11/06 05:48:51;;;;;;;0.10;0.10;;;;;;;-1.52;72.02;100955.91;6206919;23;20093;-65
2022/11/06 05:51:18;;;;;;;0.13;0.13;;;;;;;-1.49;72.02;100945.66;6209017;23;20020;-64
2022/11/06 05:53:46;;;;;;;0.13;0.13;;;;;;;-1.33;71.63;100955.56;6182203;23;20090;-65
2022/11/06 05:56:11;;;;;;;0.15;0.15;;;;;;;-1.21;71.15;100952.56;6233829;23;20024;-64
2022/11/06 05:58:37;;;;;;;0.20;0.20;;;;;;;-1.20;71.14;100955.06;6232626;23;20047;-64
2022/11/06 06:01:04;;;;;;;0.10;0.10;;;;;;;-1.23;71.34;100957.25;6203548;23;20024;-64
2022/11/06 06:03:30;;;;;;;0.10;0.10;;;;;;;-1.17;71.49;100948.53;6205132;23;20053;-64
2022/11/06 06:05:56;;;;;;;0.17;0.17;;;;;;;-1.08;71.26;100947.53;6236638;23;20028;-64
2022/11/06 06:08:22;;;;;;;0.17;0.17;;;;;;;-1.09;71.13;100958.41;6237176;23;20020;-66
2022/11/06 06:10:49;;;;;;;0.20;0.10;;;;;;;-1.01;71.03;100947.69;6218904;23;20024;-64
2022/11/06 06:13:16;;;;;;;0.10;0.10;;;;;;;-0.98;70.87;100933.91;6211635;23;20020;-65
2022/11/06 06:15:42;;;;;;;0.20;0.10;;;;;;;-0.93;70.85;100933.41;6245478;23;20027;-64
2022/11/06 06:18:09;;;;;;;0.10;0.10;;;;;;;-0.87;70.51;100943.44;6207893;23;20073;-65
2022/11/06 06:20:35;;;;;;;0.17;0.17;;;;;;;-0.88;70.24;100936.41;6238211;23;20107;-64
2022/11/06 06:23:01;;;;;;;0.10;0.10;;;;;;;-0.94;70.10;100937.06;6208092;23;20506;-65
2022/11/06 06:25:29;;;;;;;0.32;0.20;;;;;;;-1.01;70.29;100926.19;6245829;23;20461;-65
2022/11/06 06:27:57;;;;;;;0.10;0.10;;;;;;;-1.02;70.63;100925.34;6248142;23;20058;-65
2022/11/06 06:30:24;;;;;;;0.10;0.10;;;;;;;-0.96;70.55;100931.03;6244702;23;20027;-64
2022/11/06 06:32:51;;;;;;;0.10;0.10;;;;;;;-0.89;70.42;100932.88;6235781;23;20079;-65
2022/11/06 06:35:17;;;;;;;0.10;0.10;;;;;;;-0.81;70.30;100937.38;6219732;23;20478;-65
2022/11/06 06:37:50;;;;;;;0.10;0.10;;;;;;;-0.77;70.05;100932.50;6248257;23;20679;-65
2022/11/06 06:40:16;;;;;;;0.13;0.13;;;;;;;-0.80;70.15;100933.69;6210195;23;20024;-65
2022/11/06 06:42:42;;;;;;;0.17;0.17;;;;;;;-0.84;70.23;100943.09;6235976;23;20065;-65
2022/11/06 06:45:10;;;;;;;0.10;0.10;;;;;;;-0.90;70.24;100931.19;6208341;23;20106;-64
2022/11/06 06:47:36;;;;;;;0.10;0.10;;;;;;;-0.97;70.25;100932.03;6244816;23;20031;-65
2022/11/06 06:50:02;;;;;;;0.10;0.10;;;;;;;-0.98;70.61;100931.22;6214817;23;20024;-64
2022/11/06 06:52:29;;;;;;;0.10;0.10;;;;;;;-1.04;70.74;100932.75;6247607;23;20023;-65
2022/11/06 06:54:55;;;;;;;0.10;0.10;;;;;;;-1.15;70.94;100947.34;6213247;23;20460;-65
2022/11/06 06:57:21;;;;;;;0.10;0.10;;;;;;;-1.21;71.27;100936.47;6217429;23;20031;-65
2022/11/06 06:59:47;;;;;;;0.10;0.10;;;;;;;-1.18;71.51;100941.47;6234360;23;20031;-64
2022/11/06 07:02:15;;;;;;;0.10;0.10;;;;;;;-1.11;71.44;100941.66;6237359;23;20020;-64
2022/11/06 07:04:41;;;;;;;0.10;0.10;;;;;;;-1.06;71.26;100945.50;6247219;23;20024;-64
2022/11/06 07:07:07;;;;;;;0.10;0.10;;;;;;;-1.12;71.43;100937.28;6247346;23;20241;-64
2022/11/06 07:09:33;;;;;;;0.28;0.20;;;;;;;-1.17;71.53;100940.47;6212788;23;20023;-67
2022/11/06 07:11:59;;;;;;;0.10;0.10;;;;;;;-1.37;72.05;100945.34;6246466;23;20019;-69
2022/11/06 07:14:25;;;;;;;0.10;0.10;;;;;;;-1.49;72.64;100958.25;6209143;23;20115;-68
2022/11/06 07:16:51;;;;;;;0.10;0.10;;;;;;;-1.50;72.80;100940.47;6234504;23;20039;-68
2022/11/06 07:19:18;;;;;;;0.10;0.10;;;;;;;-1.64;72.96;100933.91;6217586;23;20028;-69
2022/11/06 07:21:44;;;;;;;0.20;0.20;;;;;;;-1.58;73.33;100950.19;6182911;23;20053;-68
2022/11/06 07:24:11;;;;;;;0.10;0.10;;;;;;;-1.59;73.25;100942.31;6247359;23;20020;-68
2022/11/06 07:26:38;;;;;;;0.10;0.10;;;;;;;-1.45;73.20;100946.19;6237196;23;20075;-69
2022/11/06 07:29:04;;;;;;;0.20;0.20;;;;;;;-1.33;72.60;100946.66;6237172;23;20521;-68
2022/11/06 07:31:30;;;;;;;0.10;0.10;;;;;;;-1.29;72.28;100940.81;6245198;23;20020;-68
2022/11/06 07:33:56;;;;;;;0.10;0.10;;;;;;;-1.26;72.15;100947.69;6208588;23;20054;-68
2022/11/06 07:36:23;;;;;;;0.43;0.22;;;;;;;-1.23;71.92;100943.84;6242175;23;20028;-69
2022/11/06 07:38:49;;;;;;;;;;;;;;;-1.34;72.39;100942.31;6218345;23;20066;-68
2022/11/06 07:41:15;;;;;;;0.10;0.10;;;;;;;-1.37;72.36;100943.50;6220148;23;19942;-68
2022/11/06 07:43:42;;;;;;;0.10;0.10;;;;;;;-1.31;72.48;100940.13;6238174;23;20081;-68
2022/11/06 07:46:10;;;;;;;0.10;0.10;;;;;;;-1.42;72.62;100919.00;6182666;23;20529;-68
2022/11/06 07:48:36;;;;;;;0.15;0.10;;;;;;;-1.27;72.63;100905.75;6233697;23;20096;-68
2022/11/06 07:51:06;;;;;;;0.20;0.20;;;;;;;-1.07;72.35;100922.34;6206679;23;20030;-69
2022/11/06 07:53:33;;;;;;;0.10;0.10;;;;;;;-0.95;71.97;100921.97;6215405;23;20483;-68
2022/11/06 07:56:00;;;;;;;;;;;;;;;-0.88;71.41;100923.78;6231192;23;20031;-68
2022/11/06 07:58:26;;;;;;;0.10;0.10;;;;;;;-0.82;71.20;100934.88;6205222;23;19930;-68
2022/11/06 08:00:53;;;;;;;0.10;0.10;;;;;;;-0.83;71.06;100934.03;6238911;23;20020;-68
2022/11/06 08:03:19;;;;;;;0.85;0.22;;;;;;;-0.87;71.13;100927.34;6175286;23;20454;-65
2022/11/06 08:05:46;;;;;;;0.10;0.10;;;;;;;-0.98;71.48;100927.69;6238615;23;20073;-65
2022/11/06 08:08:12;;;;;;;0.10;0.10;;;;;;;-1.03;71.94;100928.19;6212266;23;20506;-65
2022/11/06 08:10:42;;;;;;;0.20;0.20;;;;;;;-1.04;72.09;100922.00;6230337;23;20035;-65
2022/11/06 08:13:09;;;;;;;0.17;0.17;;;;;;;-1.04;72.16;100918.47;6203491;23;20746;-65
2022/11/06 08:15:37;;;;;;;0.10;0.10;;;;;;;-0.96;71.80;100933.72;6204828;23;20024;-68
2022/11/06 08:18:03;;;;;;;0.10;0.10;;;;;;;-0.93;71.62;100936.91;6244090;23;20074;-65
2022/11/06 08:20:29;;;;;;;0.10;0.10;;;;;;;-0.94;71.69;100932.56;6202452;23;20028;-65
2022/11/06 08:22:58;;;;;;;0.10;0.10;;;;;;;-0.92;71.70;100935.06;6204336;23;20020;-68
2022/11/06 08:25:27;;;;;;;0.10;0.10;;;;;;;-0.98;71.72;100933.91;6232557;23;20302;-65
2022/11/06 08:27:55;;;;;;;0.70;0.20;;;;;;;-0.92;71.67;100932.41;6228061;23;20020;-68
2022/11/06 08:30:21;;;;;;;;;;;;;;;-0.92;71.72;100930.53;6213020;23;20452;-68
2022/11/06 08:32:47;;;;;;;0.20;0.20;;;;;;;-0.86;71.20;100937.06;6211630;23;19926;-68
2022/11/06 08:35:15;;;;;;;0.20;0.10;;;;;;;-0.85;71.27;100933.38;6237408;23;20031;-68
2022/11/06 08:37:41;;;;;;;0.10;0.10;;;;;;;-0.81;71.22;100941.94;6175570;23;20030;-68
2022/11/06 08:40:08;;;;;;;0.10;0.10;;;;;;;-0.84;71.01;100931.53;6238018;23;20107;-68
2022/11/06 08:42:34;;;;;;;0.10;0.10;;;;;;;-0.93;71.16;100922.66;6233009;23;20424;-65
2022/11/06 08:45:02;;;;;;;0.10;0.10;;;;;;;-0.86;71.17;100932.56;6181055;23;20040;-68
2022/11/06 08:47:29;;;;;;;0.45;0.10;;;;;;;-0.78;71.03;100936.22;6231706;23;20024;-65
2022/11/06 08:49:55;;;;;;;0.10;0.10;;;;;;;-0.77;70.88;100929.81;6187095;23;20028;-65
2022/11/06 08:52:21;;;;;;;0.10;0.10;;;;;;;-0.72;70.66;100933.69;6226202;23;20070;-69
2022/11/06 08:54:47;;;;;;;0.20;0.20;;;;;;;-0.79;70.68;100930.00;6217109;23;20552;-68
2022/11/06 08:57:13;;;;;;;0.10;0.10;;;;;;;-0.90;71.00;100925.00;6232407;23;20039;-69
2022/11/06 08:59:39;;;;;;;0.10;0.10;;;;;;;-0.97;71.31;100927.53;6232723;23;20031;-69
2022/11/06 09:02:11;;;;;;;0.10;0.10;;;;;;;-0.93;71.60;100920.81;6246414;23;20016;-68
2022/11/06 09:04:37;;;;;;;0.10;0.10;;;;;;;-0.90;71.46;100917.75;6232634;23;20020;-68
2022/11/06 09:07:04;;;;;;;0.10;0.10;;;;;;;-0.81;71.17;100926.63;6243733;23;20023;-64
2022/11/06 09:09:30;;;;;;;0.10;0.10;;;;;;;-0.85;70.94;100936.06;6244479;23;20043;-65
2022/11/06 09:11:58;;;;;;;0.10;0.10;;;;;;;-0.78;70.70;100922.78;6236762;23;20555;-65
2022/11/06 09:14:24;;;;;;;0.10;0.10;;;;;;;-0.78;70.46;100907.53;6206891;23;20360;-65
2022/11/06 09:16:50;;;;;;;0.10;0.10;;;;;;;-0.83;70.77;100904.50;6235202;23;20020;-65
2022/11/06 09:19:18;;;;;;;0.10;0.10;;;;;;;-0.73;70.84;100907.81;6237186;23;20047;-68
2022/11/06 09:21:44;;;;;;;0.10;0.10;;;;;;;-0.81;70.56;100896.28;6232184;23;20028;-68
2022/11/06 09:24:10;;;;;;;0.10;0.10;;;;;;;-0.75;70.56;100914.38;6207036;23;20020;-68
2022/11/06 09:26:38;;;;;;;0.63;0.20;;;;;;;-0.78;70.78;100907.53;6235137;23;20024;-68
2022/11/06 09:29:03;;;;;;;0.10;0.10;;;;;;;-0.87;70.82;100900.47;6237606;23;20433;-69
2022/11/06 09:31:29;;;;;;;0.10;0.10;;;;;;;-0.81;71.01;100907.00;6247615;23;20047;-69
2022/11/06 09:33:56;;;;;;;0.10;0.10;;;;;;;-0.72;71.15;100900.59;6209852;23;20019;-68
2022/11/06 09:36:23;;;;;;;0.10;0.10;;;;;;;-0.64;71.10;100902.41;6182882;23;20482;-68
2022/11/06 09:38:49;;;;;;;0.10;0.10;;;;;;;-0.57;70.71;100906.09;6235928;23;20103;-68
2022/11/06 09:41:21;;;;;;;0.10;0.10;;;;;;;-0.61;70.54;100902.91;6185800;23;20020;-68
2022/11/06 09:44:02;;;;;;;0.10;0.10;;;;;;;-0.58;70.63;100890.97;6209812;23;20031;-69
2022/11/06 09:46:33;;;;;;;0.10;0.10;;;;;;;-0.58;70.77;100894.50;6245219;23;20456;-65
2022/11/06 09:49:05;;;;;;;0.10;0.10;;;;;;;-0.58;70.41;100899.03;6181411;23;20027;-65
2022/11/06 09:51:37;;;;;;;0.10;0.10;;;;;;;-0.64;70.81;100892.50;6203544;23;20027;-65
2022/11/06 09:54:12;;;;;;;0.10;0.10;;;;;;;-0.70;70.68;100892.38;6233374;23;20020;-65
2022/11/06 09:56:40;;;;;;;0.10;0.10;;;;;;;-0.74;70.53;100886.50;6205636;23;20024;-68
2022/11/06 09:59:13;;;;;;;0.28;0.10;;;;;;;-0.78;70.66;100882.50;6206417;23;20024;-69
2022/11/06 10:01:43;;;;;;;0.10;0.10;;;;;;;-0.83;70.66;100883.00;6206169;23;20052;-69
2022/11/06 10:04:23;;;;;;;0.10;0.10;;;;;;;-0.86;70.77;100883.34;6212134;23;20098;-68
2022/11/06 10:06:50;;;;;;;0.13;0.13;;;;;;;-0.88;71.00;100877.31;6239356;23;20028;-69
2022/11/06 10:09:16;;;;;;;0.10;0.10;;;;;;;-0.87;71.18;100868.25;6228824;23;20515;-69
2022/11/06 10:11:58;;;;;;;0.57;0.20;;;;;;;-0.72;70.72;100884.47;6238395;23;20043;-68
2022/11/06 10:14:39;;;;;;;0.10;0.10;;;;;;;-0.71;70.16;100870.03;6193454;23;20020;-68
2022/11/06 10:17:15;;;;;;;0.10;0.10;;;;;;;-0.62;69.74;100877.06;6232735;23;20024;-68
2022/11/06 10:19:48;;;;;;;0.10;0.10;;;;;;;-0.64;69.84;100875.53;6220720;23;20042;-68
2022/11/06 10:22:17;;;;;;;0.10;0.10;;;;;;;-0.61;70.15;100869.84;6238261;23;20028;-68
2022/11/06 10:24:45;;;;;;;0.10;0.10;;;;;;;-0.53;69.85;100859.03;6247238;23;20047;-68
2022/11/06 10:27:16;;;;;;;0.10;0.10;;;;;;;-0.57;69.67;100866.59;6236237;23;20074;-68
2022/11/06 10:30:07;;;;;;;0.10;0.10;;;;;;;-0.55;69.36;100874.50;6218839;23;20047;-68
2022/11/06 10:32:55;;;;;;;0.17;0.17;;;;;;;-0.54;69.20;100876.19;6200837;23;20028;-68
2022/11/06 10:35:25;;;;;;;0.10;0.10;;;;;;;-0.54;68.90;100868.13;6182716;23;20019;-65
2022/11/06 10:37:58;;;;;;;0.10;0.10;;;;;;;-0.71;69.38;100875.41;6157346;23;20016;-65
2022/11/06 10:40:30;;;;;;;0.10;0.10;;;;;;;-0.70;69.42;100877.09;6235899;23;20074;-66
2022/11/06 10:43:07;;;;;;;0.20;0.20;;;;;;;-0.70;69.38;100870.88;6233227;23;20347;-65
2022/11/06 10:45:37;;;;;;;0.10;0.10;;;;;;;-0.66;69.49;100869.50;6217498;23;20070;-65
2022/11/06 10:48:22;;;;;;;0.98;0.10;;;;;;;-0.57;69.50;100877.34;6237533;23;20031;-65
2022/11/06 10:51:01;;;;;;;0.10;0.10;;;;;;;-0.64;69.68;100883.59;6247736;23;20016;-68
2022/11/06 10:53:36;;;;;;;0.38;0.20;;;;;;;-0.75;69.97;100885.69;6234667;23;20323;-69
2022/11/06 10:56:25;;;;;;;0.10;0.10;;;;;;;-0.72;70.01;100879.94;6244230;23;20318;-68
2022/11/06 10:58:52;;;;;;;0.10;0.10;;;;;;;-0.73;69.94;100872.91;6183983;23;20024;-68
2022/11/06 11:01:18;;;;;;;0.10;0.10;;;;;;;-0.78;70.05;100879.81;6234198;23;20020;-68
2022/11/06 11:03:46;;;;;;;0.10;0.10;;;;;;;-0.88;70.50;100888.06;6244040;23;20050;-68
2022/11/06 11:06:12;;;;;;;0.38;0.20;;;;;;;-0.84;70.65;100877.81;6244470;23;20027;-68
2022/11/06 11:08:42;;;;;;;0.68;0.20;;;;;;;-0.83;70.45;100869.56;6246362;23;20020;-68
2022/11/06 11:11:23;;;;;;;0.10;0.10;;;;;;;-0.83;70.46;100863.38;6208331;23;20109;-67
2022/11/06 11:14:10;;;;;;;0.10;0.10;;;;;;;-0.73;70.45;100862.16;6217873;23;20047;-67
2022/11/06 11:16:38;;;;;;;;;;;;;;;-0.60;70.21;100871.50;6211334;23;20032;-65
2022/11/06 11:19:15;;;;;;;0.20;0.10;;;;;;;-0.63;69.81;100847.66;6220550;23;19920;-65
2022/11/06 11:21:52;;;;;;;0.13;0.08;;;;;;;-0.53;69.65;100871.66;6246370;23;20024;-65
2022/11/06 11:24:24;;;;;;;0.10;0.10;;;;;;;-0.56;69.92;100856.72;6248592;23;20107;-66
2022/11/06 11:26:53;;;;;;;0.10;0.10;;;;;;;-0.52;69.91;100854.53;6234117;23;20689;-66
2022/11/06 11:29:24;;;;;;;0.25;0.10;;;;;;;-0.52;69.76;100841.91;6209382;23;20024;-65
2022/11/06 11:31:54;;;;;;;0.10;0.10;;;;;;;-0.57;70.11;100839.75;6183483;23;20020;-65
2022/11/06 11:34:23;;;;;;;0.10;0.10;;;;;;;-0.53;69.98;100834.88;6232996;23;20090;-65
2022/11/06 11:36:53;;;;;;;0.20;0.15;;;;;;;-0.49;69.63;100840.72;6236403;23;20106;-65
2022/11/06 11:39:24;;;;;;;0.10;0.10;;;;;;;-0.52;69.30;100835.72;6247098;23;20078;-65
2022/11/06 11:41:50;;;;;;;0.10;0.10;;;;;;;-0.56;69.35;100835.22;6234230;23;20028;-65
2022/11/06 11:44:17;;;;;;;0.52;0.15;;;;;;;-0.59;69.28;100838.25;6247840;23;20016;-66
2022/11/06 11:46:48;;;;;;;0.10;0.10;;;;;;;-0.59;69.06;100843.63;6246191;23;20028;-65
2022/11/06 11:49:33;;;;;;;0.25;0.20;;;;;;;-0.60;69.14;100844.66;6248054;23;20059;-65
2022/11/06 11:52:01;;;;;;;0.10;0.10;;;;;;;-0.61;69.30;100833.06;6209051;23;20031;-65